Aviation Digital Data Service (ADDS)

Output produced by METARs form (0239 UTC 25 January 2020)
found at http://www.aviationweather.gov/metar/data/
 
METAR text: KTUL 250153Z 29003KT 10SM FEW025 02/M02 A3013 RMK AO2 SLP207 T00171022
Conditions at: KTUL (TULSA , OK, US) observed 0153 UTC 25 January 2020
Temperature: 1.7°C (35°F)
Dewpoint: -2.2°C (28°F) [RH = 75%]
Pressure (altimeter): 30.13 inches Hg (1020.4 mb)
[Sea-level pressure: 1020.7 mb]
Winds: from the WNW (290 degrees) at 3 MPH (3 knots; 1.5 m/s)
Visibility: 10 or more miles (16+ km)
Ceiling: at least 12,000 feet AGL
Clouds: few clouds at 2500 feet AGL
Weather: no significant weather observed at this time

METAR text: KTUL 250143Z 30004KT 10SM SCT025 02/M02 A3013 RMK AO2 T00221022
Conditions at: KTUL (TULSA , OK, US) observed 0143 UTC 25 January 2020
Temperature: 2.2°C (36°F)
Dewpoint: -2.2°C (28°F) [RH = 73%]
Pressure (altimeter): 30.13 inches Hg (1020.4 mb)
Winds: from the WNW (300 degrees) at 5 MPH (4 knots; 2.1 m/s)
Visibility: 10 or more miles (16+ km)
Ceiling: at least 12,000 feet AGL
Clouds: scattered clouds at 2500 feet AGL
Weather: no significant weather observed at this time

METAR text: KTUL 250053Z 28003KT 10SM BKN025 03/M02 A3012 RMK AO2 SLP201 T00281017
Conditions at: KTUL (TULSA , OK, US) observed 0053 UTC 25 January 2020
Temperature: 2.8°C (37°F)
Dewpoint: -1.7°C (29°F) [RH = 72%]
Pressure (altimeter): 30.12 inches Hg (1020.1 mb)
[Sea-level pressure: 1020.1 mb]
Winds: from the W (280 degrees) at 3 MPH (3 knots; 1.5 m/s)
Visibility: 10 or more miles (16+ km)
Ceiling: 2500 feet AGL
Clouds: broken clouds at 2500 feet AGL
Weather: no significant weather observed at this time

METAR text: KTUL 242353Z 32006KT 10SM BKN024 03/M02 A3010 RMK AO2 SLP195 T00281017 10039 20028 53003
Conditions at: KTUL (TULSA , OK, US) observed 2353 UTC 24 January 2020
Temperature: 2.8°C (37°F)
Dewpoint: -1.7°C (29°F) [RH = 72%]
Pressure (altimeter): 30.10 inches Hg (1019.4 mb)
[Sea-level pressure: 1019.5 mb]
Winds: from the NW (320 degrees) at 7 MPH (6 knots; 3.1 m/s)
Visibility: 10 or more miles (16+ km)
Ceiling: 2400 feet AGL
Clouds: broken clouds at 2400 feet AGL
Weather: no significant weather observed at this time

METAR text: KTUL 242253Z 33010KT 10SM BKN025 04/M01 A3009 RMK AO2 SLP191 T00391011
Conditions at: KTUL (TULSA , OK, US) observed 2253 UTC 24 January 2020
Temperature: 3.9°C (39°F)
Dewpoint: -1.1°C (30°F) [RH = 70%]
Pressure (altimeter): 30.09 inches Hg (1019.0 mb)
[Sea-level pressure: 1019.1 mb]
Winds: from the NNW (330 degrees) at 12 MPH (10 knots; 5.1 m/s)
Visibility: 10 or more miles (16+ km)
Ceiling: 2500 feet AGL
Clouds: broken clouds at 2500 feet AGL
Weather: no significant weather observed at this time

METAR text: KTUL 242153Z 29009KT 10SM OVC024 04/M01 A3009 RMK AO2 SLP191 T00391011
Conditions at: KTUL (TULSA , OK, US) observed 2153 UTC 24 January 2020
Temperature: 3.9°C (39°F)
Dewpoint: -1.1°C (30°F) [RH = 70%]
Pressure (altimeter): 30.09 inches Hg (1019.0 mb)
[Sea-level pressure: 1019.1 mb]
Winds: from the WNW (290 degrees) at 10 MPH (9 knots; 4.6 m/s)
Visibility: 10 or more miles (16+ km)
Ceiling: 2400 feet AGL
Clouds: overcast cloud deck at 2400 feet AGL
Weather: no significant weather observed at this time

METAR text: KTUL 242053Z 30013G20KT 10SM OVC024 03/M02 A3009 RMK AO2 SLP191 T00331017 56010
Conditions at: KTUL (TULSA , OK, US) observed 2053 UTC 24 January 2020
Temperature: 3.3°C (38°F)
Dewpoint: -1.7°C (29°F) [RH = 70%]
Pressure (altimeter): 30.09 inches Hg (1019.0 mb)
[Sea-level pressure: 1019.1 mb]
Winds: from the WNW (300 degrees) at 15 MPH (13 knots; 6.7 m/s)
gusting to 23 MPH (20 knots; 10.3 m/s)
Visibility: 10 or more miles (16+ km)
Ceiling: 2400 feet AGL
Clouds: overcast cloud deck at 2400 feet AGL
Weather: no significant weather observed at this time

METAR text: KTUL 241953Z 31013KT 10SM OVC024 03/M02 A3009 RMK AO2 SLP193 T00331017
Conditions at: KTUL (TULSA , OK, US) observed 1953 UTC 24 January 2020
Temperature: 3.3°C (38°F)
Dewpoint: -1.7°C (29°F) [RH = 70%]
Pressure (altimeter): 30.09 inches Hg (1019.0 mb)
[Sea-level pressure: 1019.3 mb]
Winds: from the NW (310 degrees) at 15 MPH (13 knots; 6.7 m/s)
Visibility: 10 or more miles (16+ km)
Ceiling: 2400 feet AGL
Clouds: overcast cloud deck at 2400 feet AGL
Weather: no significant weather observed at this time

METAR text: KTUL 241853Z 30014KT 10SM OVC025 04/M01 A3010 RMK AO2 SLP196 T00391011
Conditions at: KTUL (TULSA , OK, US) observed 1853 UTC 24 January 2020
Temperature: 3.9°C (39°F)
Dewpoint: -1.1°C (30°F) [RH = 70%]
Pressure (altimeter): 30.10 inches Hg (1019.4 mb)
[Sea-level pressure: 1019.6 mb]
Winds: from the WNW (300 degrees) at 16 MPH (14 knots; 7.2 m/s)
Visibility: 10 or more miles (16+ km)
Ceiling: 2500 feet AGL
Clouds: overcast cloud deck at 2500 feet AGL
Weather: no significant weather observed at this time

METAR text: KTUL 241753Z 31013KT 10SM BKN022 OVC030 04/M01 A3012 RMK AO2 SLP202 T00391011 10039 20017 50008
Conditions at: KTUL (TULSA , OK, US) observed 1753 UTC 24 January 2020
Temperature: 3.9°C (39°F)
Dewpoint: -1.1°C (30°F) [RH = 70%]
Pressure (altimeter): 30.12 inches Hg (1020.1 mb)
[Sea-level pressure: 1020.2 mb]
Winds: from the NW (310 degrees) at 15 MPH (13 knots; 6.7 m/s)
Visibility: 10 or more miles (16+ km)
Ceiling: 2200 feet AGL
Clouds: broken clouds at 2200 feet AGL
overcast cloud deck at 3000 feet AGL
Weather: no significant weather observed at this time

METAR text: KTUL 241736Z 30012G20KT 10SM BKN022 OVC030 04/M01 A3012 RMK AO2 T00391011
Conditions at: KTUL (TULSA , OK, US) observed 1736 UTC 24 January 2020
Temperature: 3.9°C (39°F)
Dewpoint: -1.1°C (30°F) [RH = 70%]
Pressure (altimeter): 30.12 inches Hg (1020.1 mb)
Winds: from the WNW (300 degrees) at 14 MPH (12 knots; 6.2 m/s)
gusting to 23 MPH (20 knots; 10.3 m/s)
Visibility: 10 or more miles (16+ km)
Ceiling: 2200 feet AGL
Clouds: broken clouds at 2200 feet AGL
overcast cloud deck at 3000 feet AGL
Weather: no significant weather observed at this time

METAR text: KTUL 241653Z 31014KT 10SM SCT020 OVC030 04/M01 A3012 RMK AO2 SLP203 T00391006
Conditions at: KTUL (TULSA , OK, US) observed 1653 UTC 24 January 2020
Temperature: 3.9°C (39°F)
Dewpoint: -0.6°C (31°F) [RH = 72%]
Pressure (altimeter): 30.12 inches Hg (1020.1 mb)
[Sea-level pressure: 1020.3 mb]
Winds: from the NW (310 degrees) at 16 MPH (14 knots; 7.2 m/s)
Visibility: 10 or more miles (16+ km)
Ceiling: 3000 feet AGL
Clouds: scattered clouds at 2000 feet AGL
overcast cloud deck at 3000 feet AGL
Weather: no significant weather observed at this time

METAR text: KTUL 241553Z 31012KT 10SM BKN020 OVC025 03/M01 A3012 RMK AO2 SLP201 T00331011
Conditions at: KTUL (TULSA , OK, US) observed 1553 UTC 24 January 2020
Temperature: 3.3°C (38°F)
Dewpoint: -1.1°C (30°F) [RH = 73%]
Pressure (altimeter): 30.12 inches Hg (1020.1 mb)
[Sea-level pressure: 1020.1 mb]
Winds: from the NW (310 degrees) at 14 MPH (12 knots; 6.2 m/s)
Visibility: 10 or more miles (16+ km)
Ceiling: 2000 feet AGL
Clouds: broken clouds at 2000 feet AGL
overcast cloud deck at 2500 feet AGL
Weather: no significant weather observed at this time

METAR text: KTUL 241453Z 31013KT 10SM OVC020 02/M01 A3009 RMK AO2 SLP194 T00221011 51020
Conditions at: KTUL (TULSA , OK, US) observed 1453 UTC 24 January 2020
Temperature: 2.2°C (36°F)
Dewpoint: -1.1°C (30°F) [RH = 79%]
Pressure (altimeter): 30.09 inches Hg (1019.0 mb)
[Sea-level pressure: 1019.4 mb]
Winds: from the NW (310 degrees) at 15 MPH (13 knots; 6.7 m/s)
Visibility: 10 or more miles (16+ km)
Ceiling: 2000 feet AGL
Clouds: overcast cloud deck at 2000 feet AGL
Weather: no significant weather observed at this time

METAR text: KTUL 241353Z 31012KT 10SM BKN016 OVC020 02/M02 A3008 RMK AO2 SLP190 T00221017
Conditions at: KTUL (TULSA , OK, US) observed 1353 UTC 24 January 2020
Temperature: 2.2°C (36°F)
Dewpoint: -1.7°C (29°F) [RH = 75%]
Pressure (altimeter): 30.08 inches Hg (1018.7 mb)
[Sea-level pressure: 1019.0 mb]
Winds: from the NW (310 degrees) at 14 MPH (12 knots; 6.2 m/s)
Visibility: 10 or more miles (16+ km)
Ceiling: 1600 feet AGL
Clouds: broken clouds at 1600 feet AGL
overcast cloud deck at 2000 feet AGL
Weather: no significant weather observed at this time

METAR text: KTUL 241253Z 31013G18KT 10SM OVC019 02/M01 A3005 RMK AO2 SLP179 T00221011
Conditions at: KTUL (TULSA , OK, US) observed 1253 UTC 24 January 2020
Temperature: 2.2°C (36°F)
Dewpoint: -1.1°C (30°F) [RH = 79%]
Pressure (altimeter): 30.05 inches Hg (1017.7 mb)
[Sea-level pressure: 1017.9 mb]
Winds: from the NW (310 degrees) at 15 MPH (13 knots; 6.7 m/s)
gusting to 21 MPH (18 knots; 9.3 m/s)
Visibility: 10 or more miles (16+ km)
Ceiling: 1900 feet AGL
Clouds: overcast cloud deck at 1900 feet AGL
Weather: no significant weather observed at this time

METAR text: KTUL 241153Z 31014G20KT 10SM OVC019 02/M01 A3003 RMK AO2 PK WND 29026/1103 SNE07 SLP172 P0000 60000 T00171011 10039 20017 51016
Conditions at: KTUL (TULSA , OK, US) observed 1153 UTC 24 January 2020
Temperature: 1.7°C (35°F)
Dewpoint: -1.1°C (30°F) [RH = 82%]
Pressure (altimeter): 30.03 inches Hg (1017.0 mb)
[Sea-level pressure: 1017.2 mb]
Winds: from the NW (310 degrees) at 16 MPH (14 knots; 7.2 m/s)
gusting to 23 MPH (20 knots; 10.3 m/s)
Visibility: 10 or more miles (16+ km)
Ceiling: 1900 feet AGL
Clouds: overcast cloud deck at 1900 feet AGL
Weather: no significant weather observed at this time

METAR text: KTUL 241053Z 30012KT 9SM -SN OVC015 02/M01 A3002 RMK AO2 SNB43 SLP167 PCPN VRY LGT P0000 T00171006
Conditions at: KTUL (TULSA , OK, US) observed 1053 UTC 24 January 2020
Temperature: 1.7°C (35°F)
Dewpoint: -0.6°C (31°F) [RH = 85%]
Pressure (altimeter): 30.02 inches Hg (1016.7 mb)
[Sea-level pressure: 1016.7 mb]
Winds: from the WNW (300 degrees) at 14 MPH (12 knots; 6.2 m/s)
Visibility: 9 miles (14 km)
Ceiling: 1500 feet AGL
Clouds: overcast cloud deck at 1500 feet AGL
Weather: -SN  (light snow)

METAR text: KTUL 241029Z 31014G20KT 10SM OVC016 02/M01 A3001 RMK AO2 T00171011
Conditions at: KTUL (TULSA , OK, US) observed 1029 UTC 24 January 2020
Temperature: 1.7°C (35°F)
Dewpoint: -1.1°C (30°F) [RH = 82%]
Pressure (altimeter): 30.01 inches Hg (1016.3 mb)
Winds: from the NW (310 degrees) at 16 MPH (14 knots; 7.2 m/s)
gusting to 23 MPH (20 knots; 10.3 m/s)
Visibility: 10 or more miles (16+ km)
Ceiling: 1600 feet AGL
Clouds: overcast cloud deck at 1600 feet AGL
Weather: no significant weather observed at this time

METAR text: KTUL 241015Z 31014G21KT 10SM OVC014 02/M01 A3001 RMK AO2 T00171006
Conditions at: KTUL (TULSA , OK, US) observed 1015 UTC 24 January 2020
Temperature: 1.7°C (35°F)
Dewpoint: -0.6°C (31°F) [RH = 85%]
Pressure (altimeter): 30.01 inches Hg (1016.3 mb)
Winds: from the NW (310 degrees) at 16 MPH (14 knots; 7.2 m/s)
gusting to 24 MPH (21 knots; 10.8 m/s)
Visibility: 10 or more miles (16+ km)
Ceiling: 1400 feet AGL
Clouds: overcast cloud deck at 1400 feet AGL
Weather: no significant weather observed at this time

METAR text: KTUL 240953Z 29012KT 10SM FEW012 BKN016 OVC020 02/00 A3000 RMK AO2 SNE31 SLP162 P0000 T00170000
Conditions at: KTUL (TULSA , OK, US) observed 0953 UTC 24 January 2020
Temperature: 1.7°C (35°F)
Dewpoint: 0.0°C (32°F) [RH = 88%]
Pressure (altimeter): 30.00 inches Hg (1016.0 mb)
[Sea-level pressure: 1016.2 mb]
Winds: from the WNW (290 degrees) at 14 MPH (12 knots; 6.2 m/s)
Visibility: 10 or more miles (16+ km)
Ceiling: 1600 feet AGL
Clouds: few clouds at 1200 feet AGL
broken clouds at 1600 feet AGL
overcast cloud deck at 2000 feet AGL
Weather: no significant weather observed at this time

METAR text: KTUL 240853Z 31012G22KT 8SM -SN BKN015 BKN020 OVC044 02/00 A2999 RMK AO2 SNE13B34 SLP155 P0000 60000 T00220000 53004
Conditions at: KTUL (TULSA , OK, US) observed 0853 UTC 24 January 2020
Temperature: 2.2°C (36°F)
Dewpoint: 0.0°C (32°F) [RH = 85%]
Pressure (altimeter): 29.99 inches Hg (1015.7 mb)
[Sea-level pressure: 1015.5 mb]
Winds: from the NW (310 degrees) at 14 MPH (12 knots; 6.2 m/s)
gusting to 25 MPH (22 knots; 11.3 m/s)
Visibility: 8 miles (13 km)
Ceiling: 1500 feet AGL
Clouds: broken clouds at 1500 feet AGL
broken clouds at 2000 feet AGL
overcast cloud deck at 4400 feet AGL
Weather: -SN  (light snow)

METAR text: KTUL 240753Z 32016KT 10SM -SN SCT013 OVC016 02/00 A2997 RMK AO2 RAE24SNB52 SLP151 SCT V BKN PCPN VRY LGT P0000 T00220000
Conditions at: KTUL (TULSA , OK, US) observed 0753 UTC 24 January 2020
Temperature: 2.2°C (36°F)
Dewpoint: 0.0°C (32°F) [RH = 85%]
Pressure (altimeter): 29.97 inches Hg (1015.0 mb)
[Sea-level pressure: 1015.1 mb]
Winds: from the NW (320 degrees) at 18 MPH (16 knots; 8.2 m/s)
Visibility: 10 or more miles (16+ km)
Ceiling: 1600 feet AGL
Clouds: scattered clouds at 1300 feet AGL
overcast cloud deck at 1600 feet AGL
Weather: -SN  (light snow)

METAR text: KTUL 240736Z 31015G22KT 10SM BKN013 OVC018 02/01 A2997 RMK AO2 RAE24 P0000 T00220006
Conditions at: KTUL (TULSA , OK, US) observed 0736 UTC 24 January 2020
Temperature: 2.2°C (36°F)
Dewpoint: 0.6°C (33°F) [RH = 89%]
Pressure (altimeter): 29.97 inches Hg (1015.0 mb)
Winds: from the NW (310 degrees) at 17 MPH (15 knots; 7.7 m/s)
gusting to 25 MPH (22 knots; 11.3 m/s)
Visibility: 10 or more miles (16+ km)
Ceiling: 1300 feet AGL
Clouds: broken clouds at 1300 feet AGL
overcast cloud deck at 1800 feet AGL
Weather: no significant weather observed at this time

METAR text: KTUL 240727Z 31011G20KT 10SM SCT012 OVC015 02/01 A2997 RMK AO2 RAE24 P0000 T00220006
Conditions at: KTUL (TULSA , OK, US) observed 0727 UTC 24 January 2020
Temperature: 2.2°C (36°F)
Dewpoint: 0.6°C (33°F) [RH = 89%]
Pressure (altimeter): 29.97 inches Hg (1015.0 mb)
Winds: from the NW (310 degrees) at 13 MPH (11 knots; 5.7 m/s)
gusting to 23 MPH (20 knots; 10.3 m/s)
Visibility: 10 or more miles (16+ km)
Ceiling: 1500 feet AGL
Clouds: scattered clouds at 1200 feet AGL
overcast cloud deck at 1500 feet AGL
Weather: no significant weather observed at this time

METAR text: KTUL 240714Z 31013G20KT 10SM -RA BKN013 OVC019 02/01 A2998 RMK AO2 P0000 T00220006
Conditions at: KTUL (TULSA , OK, US) observed 0714 UTC 24 January 2020
Temperature: 2.2°C (36°F)
Dewpoint: 0.6°C (33°F) [RH = 89%]
Pressure (altimeter): 29.98 inches Hg (1015.3 mb)
Winds: from the NW (310 degrees) at 15 MPH (13 knots; 6.7 m/s)
gusting to 23 MPH (20 knots; 10.3 m/s)
Visibility: 10 or more miles (16+ km)
Ceiling: 1300 feet AGL
Clouds: broken clouds at 1300 feet AGL
overcast cloud deck at 1900 feet AGL
Weather: -RA  (light rain)

METAR text: KTUL 240653Z 30011KT 10SM -RA BKN017 OVC024 03/01 A2997 RMK AO2 SLP152 RAB10 P0000 T00280006
Conditions at: KTUL (TULSA , OK, US) observed 0653 UTC 24 January 2020
Temperature: 2.8°C (37°F)
Dewpoint: 0.6°C (33°F) [RH = 85%]
Pressure (altimeter): 29.97 inches Hg (1015.0 mb)
[Sea-level pressure: 1015.2 mb]
Winds: from the WNW (300 degrees) at 13 MPH (11 knots; 5.7 m/s)
Visibility: 10 or more miles (16+ km)
Ceiling: 1700 feet AGL
Clouds: broken clouds at 1700 feet AGL
overcast cloud deck at 2400 feet AGL
Weather: -RA  (light rain)

METAR text: KTUL 240553Z 31010G21KT 10SM OVC021 04/00 A2997 RMK AO2 SLP152 60000 T00390000 10094 20039 401170028 51013
Conditions at: KTUL (TULSA , OK, US) observed 0553 UTC 24 January 2020
Temperature: 3.9°C (39°F)
Dewpoint: 0.0°C (32°F) [RH = 76%]
Pressure (altimeter): 29.97 inches Hg (1015.0 mb)
[Sea-level pressure: 1015.2 mb]
Winds: from the NW (310 degrees) at 12 MPH (10 knots; 5.1 m/s)
gusting to 24 MPH (21 knots; 10.8 m/s)
Visibility: 10 or more miles (16+ km)
Ceiling: 2100 feet AGL
Clouds: overcast cloud deck at 2100 feet AGL
Weather: no significant weather observed at this time

METAR text: KTUL 240453Z 30011KT 10SM BKN019 OVC029 04/01 A2996 RMK AO2 SLP148 T00390006
Conditions at: KTUL (TULSA , OK, US) observed 0453 UTC 24 January 2020
Temperature: 3.9°C (39°F)
Dewpoint: 0.6°C (33°F) [RH = 79%]
Pressure (altimeter): 29.96 inches Hg (1014.6 mb)
[Sea-level pressure: 1014.8 mb]
Winds: from the WNW (300 degrees) at 13 MPH (11 knots; 5.7 m/s)
Visibility: 10 or more miles (16+ km)
Ceiling: 1900 feet AGL
Clouds: broken clouds at 1900 feet AGL
overcast cloud deck at 2900 feet AGL
Weather: no significant weather observed at this time

METAR text: KTUL 240353Z 31014G24KT 10SM OVC021 04/01 A2995 RMK AO2 PK WND 30028/0259 SLP143 T00390006
Conditions at: KTUL (TULSA , OK, US) observed 0353 UTC 24 January 2020
Temperature: 3.9°C (39°F)
Dewpoint: 0.6°C (33°F) [RH = 79%]
Pressure (altimeter): 29.95 inches Hg (1014.3 mb)
[Sea-level pressure: 1014.3 mb]
Winds: from the NW (310 degrees) at 16 MPH (14 knots; 7.2 m/s)
gusting to 28 MPH (24 knots; 12.3 m/s)
Visibility: 10 or more miles (16+ km)
Ceiling: 2100 feet AGL
Clouds: overcast cloud deck at 2100 feet AGL
Weather: no significant weather observed at this time

METAR text: KTUL 240300Z 31018G28KT 10SM BKN021 BKN030 OVC035 04/01 A2994 RMK AO2 PK WND 30028/0259 T00440011
Conditions at: KTUL (TULSA , OK, US) observed 0300 UTC 24 January 2020
Temperature: 4.4°C (40°F)
Dewpoint: 1.1°C (34°F) [RH = 79%]
Pressure (altimeter): 29.94 inches Hg (1014.0 mb)
Winds: from the NW (310 degrees) at 21 MPH (18 knots; 9.3 m/s)
gusting to 32 MPH (28 knots; 14.4 m/s)
Visibility: 10 or more miles (16+ km)
Ceiling: 2100 feet AGL
Clouds: broken clouds at 2100 feet AGL
broken clouds at 3000 feet AGL
overcast cloud deck at 3500 feet AGL
Weather: no significant weather observed at this time

METAR text: KTUL 240253Z 29011KT 10SM FEW023 BKN033 BKN070 04/01 A2994 RMK AO2 PK WND 30026/0232 SLP139 60000 T00440011 51013
Conditions at: KTUL (TULSA , OK, US) observed 0253 UTC 24 January 2020
Temperature: 4.4°C (40°F)
Dewpoint: 1.1°C (34°F) [RH = 79%]
Pressure (altimeter): 29.94 inches Hg (1014.0 mb)
[Sea-level pressure: 1013.9 mb]
Winds: from the WNW (290 degrees) at 13 MPH (11 knots; 5.7 m/s)
Visibility: 10 or more miles (16+ km)
Ceiling: 3300 feet AGL
Clouds: few clouds at 2300 feet AGL
broken clouds at 3300 feet AGL
broken clouds at 7000 feet AGL
Weather: no significant weather observed at this time

METAR text: KTUL 240236Z 31015G26KT 10SM SCT025 BKN033 OVC050 05/01 A2993 RMK AO2 PK WND 30026/0232 T00500011
Conditions at: KTUL (TULSA , OK, US) observed 0236 UTC 24 January 2020
Temperature: 5.0°C (41°F)
Dewpoint: 1.1°C (34°F) [RH = 76%]
Pressure (altimeter): 29.93 inches Hg (1013.6 mb)
Winds: from the NW (310 degrees) at 17 MPH (15 knots; 7.7 m/s)
gusting to 30 MPH (26 knots; 13.4 m/s)
Visibility: 10 or more miles (16+ km)
Ceiling: 3300 feet AGL
Clouds: scattered clouds at 2500 feet AGL
broken clouds at 3300 feet AGL
overcast cloud deck at 5000 feet AGL
Weather: no significant weather observed at this time

METAR text: KTUL 240153Z 28012KT 10SM BKN023 BKN075 BKN085 05/02 A2993 RMK AO2 RAE13 SLP135 P0000 T00500022
Conditions at: KTUL (TULSA , OK, US) observed 0153 UTC 24 January 2020
Temperature: 5.0°C (41°F)
Dewpoint: 2.2°C (36°F) [RH = 82%]
Pressure (altimeter): 29.93 inches Hg (1013.6 mb)
[Sea-level pressure: 1013.5 mb]
Winds: from the W (280 degrees) at 14 MPH (12 knots; 6.2 m/s)
Visibility: 10 or more miles (16+ km)
Ceiling: 2300 feet AGL
Clouds: broken clouds at 2300 feet AGL
broken clouds at 7500 feet AGL
broken clouds at 8500 feet AGL
Weather: no significant weather observed at this time

METAR text: KTUL 240053Z 30013G25KT 10SM -RA BKN037 OVC045 06/03 A2992 RMK AO2 PK WND 29032/0039 RAB05 SLP135 P0000 T00560028
Conditions at: KTUL (TULSA , OK, US) observed 0053 UTC 24 January 2020
Temperature: 5.6°C (42°F)
Dewpoint: 2.8°C (37°F) [RH = 82%]
Pressure (altimeter): 29.92 inches Hg (1013.3 mb)
[Sea-level pressure: 1013.5 mb]
Winds: from the WNW (300 degrees) at 15 MPH (13 knots; 6.7 m/s)
gusting to 29 MPH (25 knots; 12.9 m/s)
Visibility: 10 or more miles (16+ km)
Ceiling: 3700 feet AGL
Clouds: broken clouds at 3700 feet AGL
overcast cloud deck at 4500 feet AGL
Weather: -RA  (light rain)

METAR text: KTUL 232353Z 32014KT 10SM SCT055 BKN075 09/02 A2990 RMK AO2 RAB37E47 SLP124 P0000 60000 T00940022 10117 20072 55002
Conditions at: KTUL (TULSA , OK, US) observed 2353 UTC 23 January 2020
Temperature: 9.4°C (49°F)
Dewpoint: 2.2°C (36°F) [RH = 61%]
Pressure (altimeter): 29.90 inches Hg (1012.6 mb)
[Sea-level pressure: 1012.4 mb]
Winds: from the NW (320 degrees) at 16 MPH (14 knots; 7.2 m/s)
Visibility: 10 or more miles (16+ km)
Ceiling: 7500 feet AGL
Clouds: scattered clouds at 5500 feet AGL
broken clouds at 7500 feet AGL
Weather: no significant weather observed at this time

METAR text: KTUL 232253Z 30011KT 10SM SCT049 BKN070 11/02 A2988 RMK AO2 SLP120 T01060022
Conditions at: KTUL (TULSA , OK, US) observed 2253 UTC 23 January 2020
Temperature: 10.6°C (51°F)
Dewpoint: 2.2°C (36°F) [RH = 56%]
Pressure (altimeter): 29.88 inches Hg (1011.9 mb)
[Sea-level pressure: 1012.0 mb]
Winds: from the WNW (300 degrees) at 13 MPH (11 knots; 5.7 m/s)
Visibility: 10 or more miles (16+ km)
Ceiling: 7000 feet AGL
Clouds: scattered clouds at 4900 feet AGL
broken clouds at 7000 feet AGL
Weather: no significant weather observed at this time

METAR text: KTUL 232153Z 29013G19KT 10SM FEW043 SCT049 OVC060 11/03 A2990 RMK AO2 SLP124 T01060028
Conditions at: KTUL (TULSA , OK, US) observed 2153 UTC 23 January 2020
Temperature: 10.6°C (51°F)
Dewpoint: 2.8°C (37°F) [RH = 58%]
Pressure (altimeter): 29.90 inches Hg (1012.6 mb)
[Sea-level pressure: 1012.4 mb]
Winds: from the WNW (290 degrees) at 15 MPH (13 knots; 6.7 m/s)
gusting to 22 MPH (19 knots; 9.8 m/s)
Visibility: 10 or more miles (16+ km)
Ceiling: 6000 feet AGL
Clouds: few clouds at 4300 feet AGL
scattered clouds at 4900 feet AGL
overcast cloud deck at 6000 feet AGL
Weather: no significant weather observed at this time

METAR text: KTUL 232053Z 31008KT 10SM BKN040 BKN050 11/03 A2990 RMK AO2 SLP127 T01060033 56023
Conditions at: KTUL (TULSA , OK, US) observed 2053 UTC 23 January 2020
Temperature: 10.6°C (51°F)
Dewpoint: 3.3°C (38°F) [RH = 61%]
Pressure (altimeter): 29.90 inches Hg (1012.6 mb)
[Sea-level pressure: 1012.7 mb]
Winds: from the NW (310 degrees) at 9 MPH (8 knots; 4.1 m/s)
Visibility: 10 or more miles (16+ km)
Ceiling: 4000 feet AGL
Clouds: broken clouds at 4000 feet AGL
broken clouds at 5000 feet AGL
Weather: no significant weather observed at this time

METAR text: KTUL 231953Z 29016G22KT 10SM BKN040 BKN045 BKN250 10/03 A2992 RMK AO2 SLP133 T01000033
Conditions at: KTUL (TULSA , OK, US) observed 1953 UTC 23 January 2020
Temperature: 10.0°C (50°F)
Dewpoint: 3.3°C (38°F) [RH = 63%]
Pressure (altimeter): 29.92 inches Hg (1013.3 mb)
[Sea-level pressure: 1013.3 mb]
Winds: from the WNW (290 degrees) at 18 MPH (16 knots; 8.2 m/s)
gusting to 25 MPH (22 knots; 11.3 m/s)
Visibility: 10 or more miles (16+ km)
Ceiling: 4000 feet AGL
Clouds: broken clouds at 4000 feet AGL
broken clouds at 4500 feet AGL
broken clouds at 25000 feet AGL
Weather: no significant weather observed at this time

METAR text: KTUL 231853Z 30012KT 10SM SCT020 OVC030 09/04 A2995 RMK AO2 SLP142 T00890044
Conditions at: KTUL (TULSA , OK, US) observed 1853 UTC 23 January 2020
Temperature: 8.9°C (48°F)
Dewpoint: 4.4°C (40°F) [RH = 73%]
Pressure (altimeter): 29.95 inches Hg (1014.3 mb)
[Sea-level pressure: 1014.2 mb]
Winds: from the WNW (300 degrees) at 14 MPH (12 knots; 6.2 m/s)
Visibility: 10 or more miles (16+ km)
Ceiling: 3000 feet AGL
Clouds: scattered clouds at 2000 feet AGL
overcast cloud deck at 3000 feet AGL
Weather: no significant weather observed at this time

METAR text: KTUL 231844Z 30010KT 10SM SCT020 OVC030 08/04 A2995 RMK AO2 T00830044
Conditions at: KTUL (TULSA , OK, US) observed 1844 UTC 23 January 2020
Temperature: 8.3°C (47°F)
Dewpoint: 4.4°C (40°F) [RH = 76%]
Pressure (altimeter): 29.95 inches Hg (1014.3 mb)
Winds: from the WNW (300 degrees) at 12 MPH (10 knots; 5.1 m/s)
Visibility: 10 or more miles (16+ km)
Ceiling: 3000 feet AGL
Clouds: scattered clouds at 2000 feet AGL
overcast cloud deck at 3000 feet AGL
Weather: no significant weather observed at this time

METAR text: KTUL 231753Z 29009KT 10SM BKN018 OVC025 07/04 A2997 RMK AO2 SLP151 60000 T00720039 10078 20033 58005
Conditions at: KTUL (TULSA , OK, US) observed 1753 UTC 23 January 2020
Temperature: 7.2°C (45°F)
Dewpoint: 3.9°C (39°F) [RH = 80%]
Pressure (altimeter): 29.97 inches Hg (1015.0 mb)
[Sea-level pressure: 1015.1 mb]
Winds: from the WNW (290 degrees) at 10 MPH (9 knots; 4.6 m/s)
Visibility: 10 or more miles (16+ km)
Ceiling: 1800 feet AGL
Clouds: broken clouds at 1800 feet AGL
overcast cloud deck at 2500 feet AGL
Weather: no significant weather observed at this time

METAR text: KTUL 231653Z 31008KT 10SM BKN020 BKN250 08/05 A2999 RMK AO2 SLP157 T00780050
Conditions at: KTUL (TULSA , OK, US) observed 1653 UTC 23 January 2020
Temperature: 7.8°C (46°F)
Dewpoint: 5.0°C (41°F) [RH = 82%]
Pressure (altimeter): 29.99 inches Hg (1015.7 mb)
[Sea-level pressure: 1015.7 mb]
Winds: from the NW (310 degrees) at 9 MPH (8 knots; 4.1 m/s)
Visibility: 10 or more miles (16+ km)
Ceiling: 2000 feet AGL
Clouds: broken clouds at 2000 feet AGL
broken clouds at 25000 feet AGL
Weather: no significant weather observed at this time

METAR text: KTUL 231639Z 31008KT 10SM BKN015 OVC020 07/04 A3000 RMK AO2 T00670044
Conditions at: KTUL (TULSA , OK, US) observed 1639 UTC 23 January 2020
Temperature: 6.7°C (44°F)
Dewpoint: 4.4°C (40°F) [RH = 85%]
Pressure (altimeter): 30.00 inches Hg (1016.0 mb)
Winds: from the NW (310 degrees) at 9 MPH (8 knots; 4.1 m/s)
Visibility: 10 or more miles (16+ km)
Ceiling: 1500 feet AGL
Clouds: broken clouds at 1500 feet AGL
overcast cloud deck at 2000 feet AGL
Weather: no significant weather observed at this time

METAR text: KTUL 231553Z 28005KT 10SM BKN013 OVC020 06/04 A3000 RMK AO2 SLP159 T00560039
Conditions at: KTUL (TULSA , OK, US) observed 1553 UTC 23 January 2020
Temperature: 5.6°C (42°F)
Dewpoint: 3.9°C (39°F) [RH = 89%]
Pressure (altimeter): 30.00 inches Hg (1016.0 mb)
[Sea-level pressure: 1015.9 mb]
Winds: from the W (280 degrees) at 6 MPH (5 knots; 2.6 m/s)
Visibility: 10 or more miles (16+ km)
Ceiling: 1300 feet AGL
Clouds: broken clouds at 1300 feet AGL
overcast cloud deck at 2000 feet AGL
Weather: no significant weather observed at this time

METAR text: KTUL 231530Z 26006KT 10SM BKN010 OVC020 05/04 A3000 RMK AO2 T00500039
Conditions at: KTUL (TULSA , OK, US) observed 1530 UTC 23 January 2020
Temperature: 5.0°C (41°F)
Dewpoint: 3.9°C (39°F) [RH = 93%]
Pressure (altimeter): 30.00 inches Hg (1016.0 mb)
Winds: from the W (260 degrees) at 7 MPH (6 knots; 3.1 m/s)
Visibility: 10 or more miles (16+ km)
Ceiling: 1000 feet AGL
Clouds: broken clouds at 1000 feet AGL
overcast cloud deck at 2000 feet AGL
Weather: no significant weather observed at this time

METAR text: KTUL 231453Z 24005KT 10SM BKN006 OVC011 04/03 A2999 RMK AO2 SLP157 60000 T00440033 53012
Conditions at: KTUL (TULSA , OK, US) observed 1453 UTC 23 January 2020
Temperature: 4.4°C (40°F)
Dewpoint: 3.3°C (38°F) [RH = 93%]
Pressure (altimeter): 29.99 inches Hg (1015.7 mb)
[Sea-level pressure: 1015.7 mb]
Winds: from the WSW (240 degrees) at 6 MPH (5 knots; 2.6 m/s)
Visibility: 10 or more miles (16+ km)
Ceiling: 600 feet AGL
Clouds: broken clouds at 600 feet AGL
overcast cloud deck at 1100 feet AGL
Weather: no significant weather observed at this time

Forecast for: KTUL (TULSA , OK, US)
Text: KTUL 242320Z 2500/2524 33010KT P6SM BKN025
Forecast period: 0000 to 0200 UTC 25 January 2020
Forecast type: FROM: standard forecast or significant change
Winds: from the NNW (330 degrees) at 12 MPH (10 knots; 5.1 m/s)
Visibility: 6 or more miles 10+ km)
Ceiling: 2500 feet AGL
Clouds: broken clouds at 2500 feet AGL
Weather: no significant weather forecast for this period
Text: FM250200 VRB04KT P6SM SCT250
Forecast period: 0200 to 1500 UTC 25 January 2020
Forecast type: FROM: standard forecast or significant change
Winds: variable direction winds at 5 MPH (4 knots; 2.1 m/s)
Visibility: 6 or more miles 10+ km)
Ceiling: at least 12,000 feet AGL
Clouds: scattered clouds at 25000 feet AGL
Weather: no significant weather forecast for this period
Text: FM251500 15008KT P6SM BKN150
Forecast period: 1500 UTC 25 January 2020 to 0000 UTC 26 January 2020
Forecast type: FROM: standard forecast or significant change
Winds: from the SSE (150 degrees) at 9 MPH (8 knots; 4.1 m/s)
Visibility: 6 or more miles 10+ km)
Ceiling: 15000 feet AGL
Clouds: broken clouds at 15000 feet AGL
Weather: no significant weather forecast for this period